Time;durP1;ratioP1;P1;durP2;ratioP2;P2;SDS_P1;SDS_P2;PMS_P1;PMS_P2;Temp;Humidity;BMP_temperature;BMP_pressure;BME280_temperature;BME280_humidity;BME280_pressure;Samples;Min_cycle;Max_cycle;Signal;HPM_P1;HPM_P2
2024/02/19 00:01:05;;;;;;;59.90;55.22;;;;;;;5.90;100.00;102456.97;5009948;28;20541;-78
2024/02/19 00:03:35;;;;;;;55.90;51.20;;;;;;;5.94;100.00;102450.47;5003068;28;20045;-77
2024/02/19 00:06:04;;;;;;;64.90;59.58;;;;;;;5.90;100.00;102446.41;5010414;28;20128;-78
2024/02/19 00:08:34;;;;;;;61.63;56.72;;;;;;;5.90;100.00;102453.47;5014836;28;20048;-78
2024/02/19 00:11:02;;;;;;;59.42;54.88;;;;;;;5.83;100.00;102444.44;5002444;28;20050;-78
2024/02/19 00:13:38;;;;;;;58.40;54.00;;;;;;;5.85;100.00;102438.06;4993956;28;20493;-77
2024/02/19 00:16:07;;;;;;;59.20;54.53;;;;;;;5.82;100.00;102440.97;5003102;28;20046;-79
2024/02/19 00:18:35;;;;;;;59.97;55.60;;;;;;;5.81;100.00;102439.31;5006999;28;20116;-78
2024/02/19 00:21:09;;;;;;;55.78;51.22;;;;;;;5.82;100.00;102442.78;5009819;28;20615;-78
2024/02/19 00:23:38;;;;;;;55.38;50.95;;;;;;;5.73;100.00;102442.59;5008510;28;20518;-78
2024/02/19 00:26:15;;;;;;;51.63;47.60;;;;;;;5.73;100.00;102445.22;5000588;28;20056;-78
2024/02/19 00:28:42;;;;;;;51.30;47.13;;;;;;;5.66;100.00;102456.44;5002180;28;20050;-78
2024/02/19 00:31:12;;;;;;;50.10;46.20;;;;;;;5.55;100.00;102444.16;5009701;28;20084;-78
2024/02/19 00:33:39;;;;;;;51.13;46.85;;;;;;;5.60;100.00;102451.66;5001598;28;20144;-78
2024/02/19 00:36:06;;;;;;;55.45;51.05;;;;;;;5.66;100.00;102454.63;5008485;28;20540;-77
2024/02/19 00:38:36;;;;;;;52.33;48.05;;;;;;;5.68;100.00;102438.66;4999291;28;20504;-80
2024/02/19 00:41:06;;;;;;;54.63;50.05;;;;;;;5.66;100.00;102454.63;4992875;28;20427;-79
2024/02/19 00:43:32;;;;;;;52.85;48.40;;;;;;;5.59;100.00;102458.75;5009203;28;20057;-78
2024/02/19 00:46:00;;;;;;;53.78;49.58;;;;;;;5.56;100.00;102450.25;5009325;28;20073;-80
2024/02/19 00:48:27;;;;;;;59.60;55.40;;;;;;;5.55;100.00;102445.97;5009174;28;20081;-80
2024/02/19 00:50:54;;;;;;;56.55;52.30;;;;;;;5.53;100.00;102442.63;5001177;28;20446;-76
2024/02/19 00:53:27;;;;;;;59.63;55.13;;;;;;;5.61;100.00;102443.63;5009105;28;20415;-78
2024/02/19 00:55:54;;;;;;;54.15;49.85;;;;;;;5.53;100.00;102443.44;4989684;28;20415;-78
2024/02/19 00:58:22;;;;;;;53.42;49.20;;;;;;;5.50;100.00;102428.72;5008733;28;20049;-78
2024/02/19 01:00:49;;;;;;;52.97;48.72;;;;;;;5.48;100.00;102435.94;5017694;28;20731;-77
2024/02/19 01:03:16;;;;;;;54.75;50.55;;;;;;;5.42;100.00;102435.66;5009283;28;20053;-79
2024/02/19 01:05:43;;;;;;;71.90;66.75;;;;;;;5.38;100.00;102427.13;5009090;28;20100;-77
2024/02/19 01:08:10;;;;;;;59.42;54.25;;;;;;;5.41;100.00;102420.78;5000697;28;20046;-77
2024/02/19 01:10:37;;;;;;;56.65;52.05;;;;;;;5.36;100.00;102423.00;5003529;28;20101;-78
2024/02/19 01:13:05;;;;;;;55.97;51.58;;;;;;;5.36;100.00;102418.53;4999679;28;20046;-79
2024/02/19 01:15:35;;;;;;;58.53;53.78;;;;;;;5.34;100.00;102409.09;4994344;28;20133;-77
2024/02/19 01:18:02;;;;;;;51.80;47.60;;;;;;;5.28;100.00;102405.19;4999967;28;20054;-80
2024/02/19 01:20:29;;;;;;;58.33;53.67;;;;;;;5.20;100.00;102395.28;5008336;28;20046;-80
2024/02/19 01:22:58;;;;;;;55.08;50.53;;;;;;;5.22;100.00;102392.53;5000438;28;20121;-77
2024/02/19 01:25:35;;;;;;;52.80;48.35;;;;;;;5.30;100.00;102403.25;5009019;28;20053;-77
2024/02/19 01:28:01;;;;;;;53.35;49.05;;;;;;;5.24;100.00;102401.97;5010050;28;20082;-78
2024/02/19 01:30:40;;;;;;;51.63;47.63;;;;;;;5.24;100.00;102396.69;5009735;28;20057;-77
2024/02/19 01:33:07;;;;;;;49.67;45.67;;;;;;;5.20;100.00;102400.53;5009201;28;20041;-77
2024/02/19 01:35:34;;;;;;;52.22;48.03;;;;;;;5.22;100.00;102403.88;5009050;28;20050;-78
2024/02/19 01:38:01;;;;;;;47.38;43.58;;;;;;;5.16;100.00;102401.78;5008970;28;20042;-77
2024/02/19 01:40:28;;;;;;;51.83;47.78;;;;;;;5.14;100.00;102398.44;5008126;28;20038;-78
2024/02/19 01:43:02;;;;;;;48.95;45.10;;;;;;;5.17;100.00;102403.44;5007720;28;20421;-77
2024/02/19 01:45:29;;;;;;;52.15;48.05;;;;;;;5.12;100.00;102394.28;5003633;28;20078;-78
2024/02/19 01:47:58;;;;;;;52.58;47.97;;;;;;;5.11;100.00;102389.94;5007759;28;20052;-78
2024/02/19 01:50:29;;;;;;;50.78;46.78;;;;;;;5.00;100.00;102385.59;4988492;28;20046;-78
2024/02/19 01:52:58;;;;;;;64.13;58.80;;;;;;;4.99;100.00;102389.19;5007706;28;20509;-79
2024/02/19 01:55:27;;;;;;;53.10;48.83;;;;;;;4.96;100.00;102395.56;4997405;28;20054;-79
2024/02/19 01:57:54;;;;;;;52.90;48.65;;;;;;;4.87;100.00;102391.06;5011579;28;20050;-78
2024/02/19 02:00:21;;;;;;;59.95;55.03;;;;;;;4.90;100.00;102388.19;5011378;28;20049;-77
2024/02/19 02:02:49;;;;;;;61.30;56.53;;;;;;;4.89;100.00;102383.03;5011840;28;20056;-78
2024/02/19 02:05:17;;;;;;;55.60;51.17;;;;;;;4.83;100.00;102377.28;5010697;28;20046;-78
2024/02/19 02:07:52;;;;;;;57.47;52.53;;;;;;;4.80;100.00;102369.66;5010367;28;20461;-79
2024/02/19 02:10:19;;;;;;;61.00;55.83;;;;;;;4.73;100.00;102370.31;5003258;28;20429;-79
2024/02/19 02:12:46;;;;;;;51.30;46.90;;;;;;;4.63;100.00;102367.59;4998818;28;20052;-77
2024/02/19 02:15:13;;;;;;;52.72;48.63;;;;;;;4.61;100.00;102379.22;5006108;28;20052;-76
2024/02/19 02:17:44;;;;;;;53.10;48.90;;;;;;;4.66;100.00;102375.25;5012301;28;20434;-78
2024/02/19 02:20:12;;;;;;;62.15;57.30;;;;;;;4.57;100.00;102370.75;5004341;28;20050;-75
2024/02/19 02:22:42;;;;;;;55.28;50.60;;;;;;;4.50;100.00;102373.03;5012189;28;20173;-77
2024/02/19 02:25:09;;;;;;;57.20;52.38;;;;;;;4.50;100.00;102373.03;5011995;28;20992;-77
2024/02/19 02:27:39;;;;;;;59.15;54.40;;;;;;;4.42;100.00;102366.72;5007765;28;20058;-77
2024/02/19 02:30:08;;;;;;;68.93;63.75;;;;;;;4.38;100.00;102360.03;4997870;28;20050;-78
2024/02/19 02:32:43;;;;;;;68.05;62.72;;;;;;;4.35;100.00;102369.84;5012655;28;20422;-77
2024/02/19 02:35:10;;;;;;;71.93;66.43;;;;;;;4.33;100.00;102356.00;4997827;28;20181;-78
2024/02/19 02:37:40;;;;;;;61.13;56.22;;;;;;;4.33;100.00;102357.81;5006678;28;20734;-79
2024/02/19 02:40:06;;;;;;;58.58;53.78;;;;;;;4.28;100.00;102346.81;4996334;28;20041;-75
2024/02/19 02:42:41;;;;;;;62.63;57.15;;;;;;;4.30;100.00;102352.78;5012764;28;20056;-78
2024/02/19 02:45:11;;;;;;;65.25;59.95;;;;;;;4.30;100.00;102350.97;4993678;28;20564;-78
2024/02/19 02:47:39;;;;;;;59.60;54.60;;;;;;;4.25;100.00;102340.00;5006022;28;20423;-79
2024/02/19 02:50:07;;;;;;;62.40;57.60;;;;;;;4.23;100.00;102341.06;4996713;28;20046;-78
2024/02/19 02:52:34;;;;;;;67.85;62.45;;;;;;;4.29;100.00;102343.19;4994803;28;20054;-79
2024/02/19 02:55:01;;;;;;;60.45;55.67;;;;;;;4.26;100.00;102346.91;5005242;28;20046;-78
2024/02/19 02:57:28;;;;;;;54.83;50.08;;;;;;;4.20;100.00;102350.03;5009729;28;20061;-79
2024/02/19 02:59:59;;;;;;;58.17;53.58;;;;;;;4.11;100.00;102348.16;5001927;28;20057;-78
2024/02/19 03:02:26;;;;;;;54.67;50.28;;;;;;;4.03;100.00;102335.63;5002774;28;20054;-78
2024/02/19 03:04:53;;;;;;;62.80;58.08;;;;;;;3.97;100.00;102335.31;4999153;28;20053;-78
2024/02/19 03:07:20;;;;;;;60.47;55.85;;;;;;;3.96;100.00;102333.63;4999443;28;20049;-77
2024/02/19 03:09:53;;;;;;;57.58;52.95;;;;;;;4.06;100.00;102338.03;5010063;28;20045;-77
2024/02/19 03:12:20;;;;;;;59.13;54.33;;;;;;;4.08;100.00;102338.72;5007946;28;20484;-77
2024/02/19 03:14:48;;;;;;;58.65;54.15;;;;;;;4.13;100.00;102341.00;5002355;28;20072;-77
2024/02/19 03:17:16;;;;;;;59.97;54.88;;;;;;;4.15;100.00;102344.34;5002886;28;20049;-78
2024/02/19 03:19:44;;;;;;;60.05;55.15;;;;;;;4.17;100.00;102341.56;5009962;28;20465;-78
2024/02/19 03:22:11;;;;;;;58.85;54.30;;;;;;;4.20;100.00;102343.94;5008011;28;20080;-78
2024/02/19 03:24:38;;;;;;;57.13;52.47;;;;;;;4.17;100.00;102338.94;5007819;28;20057;-77
2024/02/19 03:27:14;;;;;;;57.78;53.00;;;;;;;4.23;100.00;102336.63;5011891;28;20057;-77
2024/02/19 03:29:41;;;;;;;59.67;54.83;;;;;;;4.19;100.00;102345.75;5015462;28;20501;-77
2024/02/19 03:32:08;;;;;;;59.55;53.97;;;;;;;4.15;100.00;102341.72;5028992;28;20108;-77
2024/02/19 03:34:36;;;;;;;59.97;54.53;;;;;;;4.20;100.00;102346.59;5011207;28;20069;-78
2024/02/19 03:37:03;;;;;;;61.88;56.83;;;;;;;4.16;100.00;102346.00;5010765;28;20050;-76
2024/02/19 03:39:30;;;;;;;60.88;55.78;;;;;;;4.16;100.00;102343.38;5002410;28;20155;-78
2024/02/19 03:42:00;;;;;;;59.03;54.22;;;;;;;4.19;100.00;102347.56;4994857;28;20055;-78
2024/02/19 03:44:27;;;;;;;59.72;54.92;;;;;;;4.35;100.00;102353.22;5010069;28;20100;-78
2024/02/19 03:46:54;;;;;;;55.97;51.22;;;;;;;4.29;100.00;102345.84;5006380;28;20137;-77
2024/02/19 03:49:21;;;;;;;53.92;49.78;;;;;;;4.25;100.00;102345.25;5009396;28;20689;-78
2024/02/19 03:51:50;;;;;;;53.42;49.22;;;;;;;4.18;100.00;102340.63;5009463;28;20060;-77
2024/02/19 03:54:17;;;;;;;55.47;51.08;;;;;;;4.14;100.00;102340.03;5003949;28;20506;-77
2024/02/19 03:56:43;;;;;;;49.35;45.45;;;;;;;4.19;100.00;102337.88;5009026;28;20053;-77
2024/02/19 03:59:11;;;;;;;48.85;45.28;;;;;;;4.12;100.00;102342.78;5011726;28;20046;-78
2024/02/19 04:01:45;;;;;;;47.05;43.55;;;;;;;4.13;100.00;102331.31;5009862;28;20042;-77
2024/02/19 04:04:14;;;;;;;45.22;41.72;;;;;;;4.22;100.00;102340.25;5003701;28;20050;-78
2024/02/19 04:06:41;;;;;;;46.67;42.60;;;;;;;4.10;100.00;102333.34;5010343;28;20050;-78
2024/02/19 04:09:12;;;;;;;42.15;38.75;;;;;;;4.00;100.00;102325.38;5000725;28;20161;-79
2024/02/19 04:11:42;;;;;;;49.05;45.25;;;;;;;4.04;100.00;102334.69;5010390;28;20056;-78
2024/02/19 04:14:17;;;;;;;43.00;39.55;;;;;;;4.12;100.00;102328.81;5008737;28;20042;-79
2024/02/19 04:16:44;;;;;;;42.40;39.17;;;;;;;4.02;100.00;102333.13;5010647;28;20046;-76
2024/02/19 04:19:11;;;;;;;45.63;42.03;;;;;;;3.97;100.00;102333.50;5002597;28;20066;-76
2024/02/19 04:21:44;;;;;;;46.50;42.70;;;;;;;3.98;100.00;102340.44;5008933;28;20552;-78
2024/02/19 04:24:12;;;;;;;;;;;;;;;4.01;100.00;102336.72;5007743;28;20952;-77
2024/02/19 04:26:39;;;;;;;42.88;39.22;;;;;;;3.98;100.00;102339.59;5007461;28;19931;-77
2024/02/19 04:29:06;;;;;;;40.70;37.40;;;;;;;3.90;100.00;102343.69;5009963;28;20428;-78
2024/02/19 04:31:33;;;;;;;44.78;36.67;;;;;;;3.87;100.00;102333.41;5006816;28;20132;-78
2024/02/19 04:34:00;;;;;;;37.75;33.85;;;;;;;3.95;100.00;102345.09;5006222;28;20073;-77
2024/02/19 04:36:35;;;;;;;52.78;48.03;;;;;;;3.95;100.00;102348.56;5009683;28;20054;-78
2024/02/19 04:39:02;;;;;;;45.28;41.88;;;;;;;4.04;100.00;102344.38;5009999;28;20049;-77
2024/02/19 04:41:30;;;;;;;43.53;40.33;;;;;;;3.99;100.00;102343.88;5008961;28;20060;-80
2024/02/19 04:43:57;;;;;;;50.70;47.30;;;;;;;3.92;100.00;102343.53;5006136;28;20046;-80
2024/02/19 04:46:24;;;;;;;42.17;38.97;;;;;;;3.82;100.00;102353.97;4998444;28;20046;-80
2024/02/19 04:49:00;;;;;;;35.15;32.35;;;;;;;3.87;100.00;102346.56;4989997;28;20048;-79
2024/02/19 04:51:40;;;;;;;34.85;32.25;;;;;;;3.71;100.00;102340.81;4998622;28;20441;-77
2024/02/19 04:54:07;;;;;;;36.97;33.67;;;;;;;3.64;100.00;102334.41;5004443;28;20053;-78
2024/02/19 04:56:36;;;;;;;36.75;33.83;;;;;;;3.73;100.00;102341.56;5000505;28;20056;-77
2024/02/19 04:59:03;;;;;;;33.42;30.83;;;;;;;3.65;100.00;102349.19;4992268;28;20064;-76
2024/02/19 05:01:36;;;;;;;31.75;29.30;;;;;;;3.59;100.00;102340.00;5011284;28;20057;-77
2024/02/19 05:04:16;;;;;;;34.67;32.17;;;;;;;3.50;100.00;102345.97;5008412;28;20053;-77
2024/02/19 05:06:43;;;;;;;34.30;31.13;;;;;;;3.48;100.00;102345.28;5000569;28;20121;-77
2024/02/19 05:09:10;;;;;;;34.67;32.08;;;;;;;3.46;100.00;102334.03;5008964;28;20052;-78
2024/02/19 05:11:39;;;;;;;32.80;30.23;;;;;;;3.46;100.00;102333.22;5001360;28;20042;-77
2024/02/19 05:14:06;;;;;;;29.20;26.90;;;;;;;3.33;100.00;102342.06;4999777;28;20050;-78
2024/02/19 05:16:33;;;;;;;33.05;30.48;;;;;;;3.30;100.00;102346.69;5006316;28;20057;-78
2024/02/19 05:19:00;;;;;;;40.17;37.38;;;;;;;3.35;100.00;102339.28;5008988;28;20049;-77
2024/02/19 05:21:31;;;;;;;38.35;35.65;;;;;;;3.36;100.00;102340.94;5007385;28;20355;-76
2024/02/19 05:24:00;;;;;;;37.47;34.72;;;;;;;3.42;100.00;102330.00;5000374;28;20056;-78
2024/02/19 05:26:27;;;;;;;33.67;31.30;;;;;;;3.33;100.00;102342.06;5008742;28;20052;-78
2024/02/19 05:28:57;;;;;;;35.92;33.33;;;;;;;3.37;100.00;102332.13;4995646;28;20052;-77
2024/02/19 05:31:33;;;;;;;34.22;31.70;;;;;;;3.45;100.00;102337.63;5009331;28;20054;-77
2024/02/19 05:34:02;;;;;;;39.08;36.30;;;;;;;6.29;100.00;102327.78;4994315;28;20057;-78
2024/02/19 05:36:29;;;;;;;41.97;39.17;;;;;;;5.61;100.00;102334.72;5006010;28;20046;-82
2024/02/19 05:38:56;;;;;;;29.27;27.30;;;;;;;3.71;100.00;102325.06;5007224;28;20054;-78
2024/02/19 05:41:23;;;;;;;30.48;28.23;;;;;;;3.60;100.00;102336.44;5000492;28;20041;-78
2024/02/19 05:43:50;;;;;;;31.30;29.08;;;;;;;3.57;100.00;102331.41;4996649;28;20778;-80
2024/02/19 05:46:18;;;;;;;34.90;32.40;;;;;;;3.55;100.00;102330.69;5004536;28;20155;-77
2024/02/19 05:48:48;;;;;;;32.17;29.95;;;;;;;3.58;100.00;102337.50;5004664;28;20062;-78
2024/02/19 05:51:15;;;;;;;32.70;30.50;;;;;;;3.65;100.00;102343.94;4994462;28;20101;-79
2024/02/19 05:53:42;;;;;;;34.58;32.42;;;;;;;3.67;100.00;102345.50;5004302;28;20041;-80
2024/02/19 05:56:10;;;;;;;34.75;32.47;;;;;;;3.72;100.00;102347.75;5007281;28;20053;-77
2024/02/19 05:58:40;;;;;;;31.95;29.73;;;;;;;3.74;100.00;102345.00;5003986;28;20056;-79
2024/02/19 06:01:07;;;;;;;33.22;30.92;;;;;;;3.79;100.00;102348.13;5010265;28;20050;-77
2024/02/19 06:03:36;;;;;;;37.97;35.58;;;;;;;3.81;100.00;102340.94;4994913;28;20054;-78
2024/02/19 06:06:04;;;;;;;37.15;34.42;;;;;;;3.92;100.00;102343.53;5006218;28;20050;-77
2024/02/19 06:08:34;;;;;;;35.35;33.05;;;;;;;3.95;100.00;102348.56;5003354;28;20079;-77
2024/02/19 06:11:04;;;;;;;35.25;32.75;;;;;;;3.96;100.00;102347.59;5004243;28;20054;-77
2024/02/19 06:13:31;;;;;;;35.13;32.83;;;;;;;4.11;100.00;102346.38;5002823;28;20461;-78
2024/02/19 06:15:58;;;;;;;35.40;33.10;;;;;;;4.16;100.00;102343.38;5007549;28;20057;-77
2024/02/19 06:18:25;;;;;;;37.50;35.30;;;;;;;4.34;100.00;102344.50;5007910;28;20888;-78
2024/02/19 06:20:53;;;;;;;36.72;34.42;;;;;;;4.45;100.00;102343.63;5007294;28;20135;-78
2024/02/19 06:23:20;;;;;;;36.80;34.17;;;;;;;4.50;100.00;102345.88;5007557;28;20049;-78
2024/02/19 06:25:48;;;;;;;34.78;32.47;;;;;;;4.46;100.00;102347.94;5008033;28;20041;-77
2024/02/19 06:28:15;;;;;;;35.38;33.28;;;;;;;4.64;100.00;102342.94;4996646;28;20429;-76
2024/02/19 06:30:42;;;;;;;34.75;32.50;;;;;;;4.59;100.00;102339.84;5007643;28;20073;-77
2024/02/19 06:33:09;;;;;;;34.80;32.60;;;;;;;4.71;100.00;102344.09;5007776;28;20124;-81
2024/02/19 06:35:45;;;;;;;31.80;29.90;;;;;;;4.90;100.00;102345.19;5003812;28;20050;-79
2024/02/19 06:38:13;;;;;;;31.45;29.55;;;;;;;4.85;100.00;102347.41;4998313;28;20058;-76
2024/02/19 06:40:40;;;;;;;33.90;31.90;;;;;;;4.90;100.00;102340.78;5001125;28;20046;-77
2024/02/19 06:43:07;;;;;;;32.22;30.33;;;;;;;4.99;100.00;102334.75;4992224;28;20046;-77
2024/02/19 06:45:34;;;;;;;32.28;30.38;;;;;;;5.07;100.00;102346.41;4999326;28;20132;-77
2024/02/19 06:48:03;;;;;;;31.88;29.98;;;;;;;5.03;100.00;102332.69;5011851;28;20060;-78
2024/02/19 06:50:35;;;;;;;33.70;31.60;;;;;;;5.22;100.00;102331.94;4998805;28;20065;-78
2024/02/19 06:53:02;;;;;;;32.67;30.67;;;;;;;5.31;100.00;102325.03;4992370;28;20154;-79
2024/02/19 06:55:30;;;;;;;30.50;28.70;;;;;;;5.25;100.00;102329.03;5010109;28;20108;-79
2024/02/19 06:58:06;;;;;;;34.47;32.38;;;;;;;5.30;100.00;102318.94;5012010;28;20058;-78
2024/02/19 07:00:33;;;;;;;31.65;29.75;;;;;;;5.27;100.00;102316.56;5013143;28;20054;-77
2024/02/19 07:03:00;;;;;;;33.45;30.70;;;;;;;5.49;100.00;102318.19;5012620;28;20064;-77
2024/02/19 07:05:27;;;;;;;32.05;30.05;;;;;;;5.29;100.00;102330.44;5012775;28;20058;-75
2024/02/19 07:07:53;;;;;;;32.33;30.30;;;;;;;5.56;100.00;102335.13;5012775;28;20057;-78
2024/02/19 07:10:21;;;;;;;32.45;30.55;;;;;;;5.73;100.00;102329.22;5011818;28;20055;-77
2024/02/19 07:12:50;;;;;;;31.58;29.58;;;;;;;5.66;100.00;102336.00;5004124;28;20516;-78
2024/02/19 07:15:16;;;;;;;31.95;30.02;;;;;;;5.91;100.00;102337.31;5005107;28;20060;-77
2024/02/19 07:17:42;;;;;;;32.97;30.95;;;;;;;5.96;100.00;102334.28;5010442;28;20050;-78
2024/02/19 07:20:10;;;;;;;30.17;28.38;;;;;;;5.79;100.00;102337.56;5005155;28;20132;-80
2024/02/19 07:22:37;;;;;;;30.08;28.05;;;;;;;5.93;100.00;102334.56;5005677;28;20049;-78
2024/02/19 07:25:05;;;;;;;28.05;26.25;;;;;;;6.14;100.00;102331.81;5010009;28;20531;-78
2024/02/19 07:27:32;;;;;;;26.88;25.20;;;;;;;6.14;100.00;102329.16;5011930;28;20077;-78
2024/02/19 07:30:00;;;;;;;26.63;24.98;;;;;;;6.35;100.00;102321.97;5010807;28;20064;-79
2024/02/19 07:32:27;;;;;;;26.10;24.60;;;;;;;6.34;100.00;102327.38;5003382;28;20056;-78
2024/02/19 07:34:54;;;;;;;26.45;24.95;;;;;;;6.52;100.00;102328.34;5009584;28;20472;-77
2024/02/19 07:37:20;;;;;;;24.85;23.35;;;;;;;6.36;100.00;102317.53;5010959;28;20816;-76
2024/02/19 07:39:56;;;;;;;27.23;25.63;;;;;;;6.47;100.00;102312.09;5012588;28;20054;-77
2024/02/19 07:42:23;;;;;;;25.42;23.92;;;;;;;6.31;100.00;102312.66;5000803;28;20062;-77
2024/02/19 07:44:49;;;;;;;24.90;23.40;;;;;;;6.74;100.00;102316.66;5011818;28;20054;-78
2024/02/19 07:47:18;;;;;;;22.67;21.27;;;;;;;6.41;100.00;102313.50;5000318;28;20050;-77
2024/02/19 07:49:46;;;;;;;25.70;24.02;;;;;;;6.76;100.00;102314.72;5002905;28;20585;-77
2024/02/19 07:52:13;;;;;;;22.88;21.48;;;;;;;7.03;100.00;102321.06;4991193;28;20058;-79
2024/02/19 07:54:40;;;;;;;22.48;21.08;;;;;;;6.85;100.00;102319.13;5003515;28;20442;-77
2024/02/19 07:57:07;;;;;;;24.70;23.20;;;;;;;7.45;100.00;102324.09;5010226;28;20816;-78
2024/02/19 07:59:34;;;;;;;22.58;21.27;;;;;;;7.06;100.00;102323.41;5000908;28;20148;-78
2024/02/19 08:02:01;;;;;;;24.10;22.80;;;;;;;6.97;100.00;102316.34;4995411;28;20042;-77
2024/02/19 08:04:29;;;;;;;21.90;20.70;;;;;;;6.98;100.00;102318.00;5007648;28;20434;-77
2024/02/19 08:06:56;;;;;;;22.65;21.35;;;;;;;7.64;100.00;102325.81;5001210;28;20042;-80
2024/02/19 08:09:24;;;;;;;24.40;22.73;;;;;;;6.88;100.00;102321.50;5009817;28;20050;-78
2024/02/19 08:11:58;;;;;;;23.27;21.77;;;;;;;7.33;100.00;102314.69;5000885;28;20051;-80
2024/02/19 08:14:25;;;;;;;23.20;21.70;;;;;;;7.16;100.00;102307.50;5000005;28;20058;-79
2024/02/19 08:16:52;;;;;;;21.20;19.80;;;;;;;6.95;100.00;102313.81;5009407;28;20049;-78
2024/02/19 08:19:19;;;;;;;21.60;20.30;;;;;;;7.17;100.00;102309.16;5009256;28;20804;-76
2024/02/19 08:21:49;;;;;;;20.95;19.65;;;;;;;7.00;100.00;102311.59;5010128;28;20048;-76
2024/02/19 08:24:16;;;;;;;20.45;19.23;;;;;;;7.24;100.00;102313.75;5005445;28;20057;-78
2024/02/19 08:26:44;;;;;;;21.85;20.52;;;;;;;7.16;100.00;102313.63;5009717;28;20104;-77
2024/02/19 08:29:12;;;;;;;21.75;20.35;;;;;;;7.52;100.00;102316.41;5001897;28;20051;-77
2024/02/19 08:31:40;;;;;;;20.48;19.27;;;;;;;7.44;100.00;102306.56;5009956;28;20525;-77
2024/02/19 08:34:07;;;;;;;21.25;19.85;;;;;;;7.21;100.00;102308.75;5007544;28;20053;-78
2024/02/19 08:36:34;;;;;;;24.73;22.60;;;;;;;7.39;100.00;102308.00;5011017;28;20046;-79
2024/02/19 08:39:02;;;;;;;21.48;20.17;;;;;;;7.28;100.00;102301.91;5006080;28;20053;-76
2024/02/19 08:41:35;;;;;;;20.63;19.33;;;;;;;7.36;100.00;102295.91;5010129;28;20099;-77
2024/02/19 08:44:21;;;;;;;23.10;21.70;;;;;;;7.45;100.00;102294.19;5002961;28;20142;-77
2024/02/19 08:46:48;;;;;;;21.15;19.95;;;;;;;7.43;100.00;102296.13;5006917;28;20144;-78
2024/02/19 08:49:42;;;;;;;21.38;20.13;;;;;;;8.17;100.00;102300.38;5010126;28;20054;-76
2024/02/19 08:52:11;;;;;;;20.45;19.15;;;;;;;7.85;100.00;102290.34;4997747;28;20703;-77
2024/02/19 08:54:39;;;;;;;20.55;19.25;;;;;;;7.79;100.00;102295.22;5006283;23;20052;-76
2024/02/19 08:57:28;;;;;;;21.92;20.63;;;;;;;7.77;100.00;102286.59;5009846;28;20440;-79
2024/02/19 10:11:17;;;;;;;24.05;22.10;;;;;;;9.06;100.00;102234.00;5015700;23;20604;-77
2024/02/19 10:13:45;;;;;;;26.77;25.23;;;;;;;9.02;100.00;102227.38;5041455;28;20040;-77
2024/02/19 10:16:15;;;;;;;20.17;18.88;;;;;;;8.97;100.00;102227.00;5051551;28;20076;-78
2024/02/19 10:18:48;;;;;;;21.83;20.50;;;;;;;9.01;100.00;102216.91;5053673;28;20049;-78
2024/02/19 10:21:15;;;;;;;22.63;20.70;;;;;;;9.05;100.00;102212.97;5053587;28;20056;-77
2024/02/19 10:23:42;;;;;;;25.15;23.55;;;;;;;8.67;100.00;102215.09;5054397;28;20056;-77
2024/02/19 10:26:30;;;;;;;27.17;25.58;;;;;;;8.90;100.00;102207.44;5055127;28;20530;-77
2024/02/19 10:28:57;;;;;;;23.70;22.10;;;;;;;8.57;100.00;102199.31;5051851;28;20821;-78
2024/02/19 10:31:27;;;;;;;25.50;23.90;;;;;;;9.23;100.00;102189.00;5052568;28;20053;-79
2024/02/19 10:34:09;;;;;;;24.55;22.85;;;;;;;9.04;100.00;102180.31;5053108;28;20051;-77
2024/02/19 10:36:36;;;;;;;25.48;23.88;;;;;;;9.06;100.00;102191.59;5053283;28;20059;-78
2024/02/19 10:39:04;;;;;;;28.58;26.75;;;;;;;9.15;100.00;102184.50;5052114;28;20056;-78
2024/02/19 10:41:36;;;;;;;24.00;22.40;;;;;;;9.04;100.00;102180.31;5052029;28;20060;-76
2024/02/19 10:44:05;;;;;;;21.92;20.33;;;;;;;9.13;100.00;102183.81;5044872;28;20044;-75
2024/02/19 10:46:33;;;;;;;21.38;20.02;;;;;;;9.13;100.00;102175.88;5050987;28;20060;-78
2024/02/19 10:49:08;;;;;;;21.48;20.05;;;;;;;9.23;100.00;102173.09;5051203;28;20048;-77
2024/02/19 10:51:39;;;;;;;22.90;21.50;;;;;;;9.28;100.00;102163.66;5051374;28;20056;-78
2024/02/19 10:54:06;;;;;;;22.77;21.38;;;;;;;9.21;100.00;102169.78;5051615;28;20116;-78
2024/02/19 10:56:39;;;;;;;25.90;24.30;;;;;;;9.01;100.00;102156.78;5051229;28;20072;-77
2024/02/19 10:59:08;;;;;;;23.48;21.98;;;;;;;9.33;100.00;102153.41;5051171;28;20072;-78
2024/02/19 11:01:41;;;;;;;21.95;20.65;;;;;;;9.57;100.00;102154.44;5052255;28;20045;-77
2024/02/19 11:04:12;;;;;;;25.38;23.88;;;;;;;9.72;100.00;102146.66;5052720;28;20049;-78
2024/02/19 11:06:40;;;;;;;24.15;22.80;;;;;;;9.73;100.00;102141.19;5053213;28;20077;-78
2024/02/19 11:09:12;;;;;;;23.48;21.83;;;;;;;9.49;100.00;102141.97;5050274;28;20059;-77
2024/02/19 11:11:48;;;;;;;23.53;22.03;;;;;;;9.40;100.00;102142.97;5050930;28;20131;-76
2024/02/19 11:14:21;;;;;;;22.65;21.25;;;;;;;9.64;100.00;102132.38;5050621;28;20045;-76
2024/02/19 11:16:49;;;;;;;24.20;22.55;;;;;;;9.57;100.00;102135.88;5050511;28;20114;-77
2024/02/19 11:19:16;;;;;;;24.38;22.88;;;;;;;9.62;100.00;102130.88;5050775;28;20045;-77
2024/02/19 11:21:44;;;;;;;23.55;22.00;;;;;;;9.45;100.00;102138.00;5048344;28;20080;-77
2024/02/19 11:24:11;;;;;;;26.25;24.45;;;;;;;9.35;100.00;102129.38;5050640;28;20053;-76
2024/02/19 11:26:46;;;;;;;24.25;22.55;;;;;;;9.56;100.00;102126.25;5050214;28;20045;-75
2024/02/19 11:29:15;;;;;;;24.15;22.55;;;;;;;9.48;100.00;102123.59;5051286;28;20617;-76
2024/02/19 11:31:43;;;;;;;25.02;23.30;;;;;;;9.56;100.00;102118.28;5050503;28;20077;-76
2024/02/19 11:34:14;;;;;;;23.42;21.92;;;;;;;9.94;100.00;102110.66;5049967;28;20072;-77
2024/02/19 11:36:43;;;;;;;22.90;21.30;;;;;;;9.89;100.00;102111.16;5050727;28;20052;-75
2024/02/19 11:39:10;;;;;;;24.73;23.13;;;;;;;9.67;100.00;102104.69;5050506;28;20572;-77
2024/02/19 11:41:37;;;;;;;24.40;22.70;;;;;;;9.67;100.00;102099.38;5049682;28;20049;-77
2024/02/19 11:44:06;;;;;;;29.88;27.98;;;;;;;10.22;100.00;102096.00;5049549;28;20554;-77
2024/02/19 11:46:33;;;;;;;28.00;26.20;;;;;;;10.28;100.00;102092.69;5049489;28;20045;-77
2024/02/19 11:49:00;;;;;;;23.67;22.08;;;;;;;10.49;100.00;102084.16;5050176;28;20056;-76
2024/02/19 11:51:27;;;;;;;25.60;23.88;;;;;;;10.74;100.00;102079.59;5051028;28;20067;-76
2024/02/19 11:53:55;;;;;;;28.10;26.30;;;;;;;10.72;100.00;102070.13;5050573;28;20116;-76
2024/02/19 11:56:45;;;;;;;28.20;26.40;;;;;;;10.72;100.00;102070.13;5050420;28;20041;-77
2024/02/19 11:59:15;;;;;;;25.05;23.35;;;;;;;11.52;100.00;102058.28;5048193;28;20053;-78
2024/02/19 12:01:43;;;;;;;25.20;23.60;;;;;;;11.91;100.00;102060.78;5042717;28;20151;-76
2024/02/19 12:04:10;;;;;;;24.90;23.30;;;;;;;11.38;100.00;102062.56;5049515;28;20049;-75
2024/02/19 12:06:40;;;;;;;26.73;25.02;;;;;;;13.40;100.00;102051.50;5050244;28;20053;-75
2024/02/19 12:09:08;;;;;;;27.85;25.95;;;;;;;14.01;100.00;102048.25;5049959;28;20056;-76
2024/02/19 12:11:41;;;;;;;28.55;26.55;;;;;;;13.64;100.00;102052.91;5048952;28;20107;-76
2024/02/19 12:14:10;;;;;;;26.20;24.20;;;;;;;13.95;100.00;102043.72;5049685;28;20718;-76
2024/02/19 12:16:39;;;;;;;28.73;26.67;;;;;;;14.19;100.00;102037.03;5049759;28;20045;-76
2024/02/19 12:19:16;;;;;;;25.92;24.23;;;;;;;14.03;100.00;102037.38;5048054;28;20055;-76
2024/02/19 12:21:44;;;;;;;26.80;25.00;;;;;;;15.48;94.99;102041.53;5044881;28;20052;-76
2024/02/19 12:24:12;;;;;;;25.95;24.15;;;;;;;15.56;83.60;102042.13;5050822;28;20084;-78
2024/02/19 12:27:05;;;;;;;26.35;24.65;;;;;;;14.09;90.96;102042.75;5051305;28;20041;-78
2024/02/19 12:29:41;;;;;;;28.50;26.50;;;;;;;13.57;100.00;102038.69;5050957;28;20151;-77